Kajang, Malaysia
Current Conditions -  °F | °C
As of 3:00 AM on Sunday 26 Oct 2014 (Local Time) from WMSA Reporting Station
Haze Haze  
Wind Chill: 79°   Ceiling: 27000
Heat Index: 82°   Visibility: 1.5mi
Dew Point: 75°   Wind: 0mph
Humidity: 89%   Direction: NA
Pressure: 29.83"   Gusts: NA
Location:  3°N, 101.8°E
Report Text: WMSA 251900Z 00000KT 2500 HZ FEW016CB BKN270 26/24 Q1010
Loading
Personal Weather Stations






























Interactive Weather Map
Tropical Storm Tracking
New forecast layout! Learn more

10-Day Weather Forecast

Advertisements
Track Severe Weather on mobile